Time;durP1;ratioP1;P1;durP2;ratioP2;P2;SDS_P1;SDS_P2;PMS_P1;PMS_P2;Temp;Humidity;BMP_temperature;BMP_pressure;BME280_temperature;BME280_humidity;BME280_pressure;Samples;Min_cycle;Max_cycle;Signal;HPM_P1;HPM_P2
2022/12/04 00:00:10;;;;;;;57.10;25.80;;;-3276.20;92.10;;;;;;5026654;28;20030;-72
2022/12/04 00:02:36;;;;;;;53.65;24.63;;;-3276.20;92.20;;;;;;5022925;28;20026;-72
2022/12/04 00:05:03;;;;;;;48.47;24.48;;;-3276.20;92.30;;;;;;5021598;28;20048;-72
2022/12/04 00:07:28;;;;;;;55.78;24.83;;;-3276.20;92.30;;;;;;5028418;28;20600;-72
2022/12/04 00:09:54;;;;;;;47.85;22.92;;;-3276.10;92.20;;;;;;5025028;28;20076;-72
2022/12/04 00:12:20;;;;;;;46.40;23.98;;;-3276.10;92.30;;;;;;5016024;28;20029;-72
2022/12/04 00:14:45;;;;;;;52.70;24.48;;;-3276.20;92.40;;;;;;5020766;28;20063;-72
2022/12/04 00:17:11;;;;;;;55.20;24.70;;;-3276.20;92.40;;;;;;5026290;28;20045;-72
2022/12/04 00:19:36;;;;;;;55.63;25.35;;;-3276.20;92.40;;;;;;5017293;28;20026;-73
2022/12/04 00:22:02;;;;;;;47.65;23.58;;;-3276.10;92.40;;;;;;5017101;28;20111;-72
2022/12/04 00:24:27;;;;;;;47.25;23.25;;;-3276.10;92.40;;;;;;5018924;28;20021;-74
2022/12/04 00:26:53;;;;;;;48.25;23.08;;;-3276.20;92.40;;;;;;5033897;28;20029;-72
2022/12/04 00:29:18;;;;;;;49.75;24.73;;;-3276.10;92.40;;;;;;5018591;28;20025;-72
2022/12/04 00:31:44;;;;;;;54.53;24.40;;;-3276.20;92.50;;;;;;5025214;28;20034;-72
2022/12/04 00:34:10;;;;;;;55.05;24.67;;;-3276.20;92.50;;;;;;5027374;28;20043;-71
2022/12/04 00:36:35;;;;;;;58.10;26.25;;;-3276.20;92.50;;;;;;5020638;28;20097;-71
2022/12/04 00:39:01;;;;;;;39.08;18.65;;;-3276.20;92.50;;;;;;5010526;28;20120;-71
2022/12/04 00:41:29;;;;;;;56.72;25.65;;;-3276.10;92.40;;;;;;5015837;28;20445;-71
2022/12/04 00:43:55;;;;;;;58.55;25.83;;;-3276.10;92.50;;;;;;5020643;28;20353;-71
2022/12/04 00:46:21;;;;;;;52.42;23.55;;;-3276.10;92.50;;;;;;5021197;28;20025;-71
2022/12/04 00:48:47;;;;;;;49.80;24.50;;;-3276.20;92.50;;;;;;5025445;28;20326;-71
2022/12/04 00:51:21;;;;;;;49.70;23.58;;;-3276.20;92.50;;;;;;5022705;28;20101;-71
2022/12/04 00:53:47;;;;;;;51.60;25.02;;;-3276.20;92.60;;;;;;5024515;28;20032;-71
2022/12/04 00:56:16;;;;;;;51.53;24.92;;;-3276.20;92.50;;;;;;5023194;28;20021;-71
2022/12/04 00:58:42;;;;;;;54.38;24.20;;;-3276.20;92.60;;;;;;5025636;28;20130;-72
2022/12/04 01:01:10;;;;;;;52.78;24.40;;;-3276.20;92.60;;;;;;5027509;28;20108;-71
2022/12/04 01:03:36;;;;;;;55.95;24.42;;;-3276.20;92.60;;;;;;5009694;28;20056;-71
2022/12/04 01:06:02;;;;;;;51.78;23.90;;;-3276.20;92.40;;;;;;5023130;28;20061;-71
2022/12/04 01:08:28;;;;;;;54.75;25.02;;;-3276.20;92.60;;;;;;5029912;28;20033;-71
2022/12/04 01:10:53;;;;;;;47.15;24.23;;;-3276.20;92.60;;;;;;5025429;28;20044;-72
2022/12/04 01:13:19;;;;;;;50.88;23.55;;;-3276.20;92.50;;;;;;5026491;28;20365;-71
2022/12/04 01:15:46;;;;;;;49.00;23.83;;;-3276.20;92.60;;;;;;5025905;28;20033;-72
2022/12/04 01:18:13;;;;;;;47.08;22.50;;;-3276.20;92.40;;;;;;5025388;28;20017;-71
2022/12/04 01:20:39;;;;;;;51.40;23.92;;;-3276.20;92.60;;;;;;5018100;28;20021;-71
2022/12/04 01:23:05;;;;;;;46.72;23.80;;;-3276.20;92.50;;;;;;5028996;28;20107;-72
2022/12/04 01:25:31;;;;;;;50.35;24.33;;;-3276.20;92.60;;;;;;5034711;28;20041;-71
2022/12/04 01:27:56;;;;;;;49.42;22.95;;;-3276.30;92.60;;;;;;5023119;28;20328;-71
2022/12/04 01:30:22;;;;;;;46.55;23.73;;;-3276.20;92.50;;;;;;5024605;28;20124;-71
2022/12/04 01:36:12;;;;;;;45.25;20.80;;;-3276.30;92.50;;;;;;5026444;28;20417;-72
2022/12/04 01:38:38;;;;;;;46.30;21.38;;;-3276.30;92.50;;;;;;5021171;28;20430;-72
2022/12/04 01:41:05;;;;;;;49.80;24.02;;;-3276.30;92.60;;;;;;5026862;28;20450;-71
2022/12/04 01:43:33;;;;;;;51.55;22.67;;;-3276.30;92.60;;;;;;5019441;28;20382;-71
2022/12/04 01:46:00;;;;;;;48.45;23.85;;;-3276.30;92.60;;;;;;5018884;28;20037;-71
2022/12/04 01:48:29;;;;;;;47.05;23.08;;;-3276.30;92.70;;;;;;5029334;28;20087;-72
2022/12/04 01:51:01;;;;;;;51.97;24.17;;;-3276.30;92.70;;;;;;5016640;28;20013;-72
2022/12/04 01:53:29;;;;;;;45.97;22.67;;;-3276.30;92.60;;;;;;5025961;28;20030;-71
2022/12/04 01:55:55;;;;;;;47.42;22.25;;;-3276.30;92.60;;;;;;5026895;28;20474;-72
2022/12/04 01:58:27;;;;;;;52.20;23.25;;;-3276.30;92.50;;;;;;5021082;28;20068;-72
2022/12/04 02:00:57;;;;;;;50.67;22.92;;;-3276.20;92.60;;;;;;5029532;28;20035;-73
2022/12/04 02:03:23;;;;;;;51.33;23.50;;;-3276.30;92.70;;;;;;5023966;28;20028;-71
2022/12/04 02:05:48;;;;;;;47.22;22.50;;;-3276.30;92.80;;;;;;5029546;28;20030;-71
2022/12/04 02:08:14;;;;;;;49.72;23.45;;;-3276.30;92.70;;;;;;5031358;28;20087;-72
2022/12/04 02:11:21;;;;;;;49.10;23.48;;;-3276.40;92.80;;;;;;5024163;28;20030;-71
2022/12/04 02:14:06;;;;;;;45.22;22.40;;;-3276.30;92.80;;;;;;5022292;28;20119;-71
2022/12/04 02:16:49;;;;;;;44.55;21.88;;;-3276.30;92.70;;;;;;5027452;28;20072;-71
2022/12/04 02:19:47;;;;;;;45.60;21.67;;;-3276.40;92.80;;;;;;5032773;28;20105;-71
2022/12/04 02:22:27;;;;;;;45.47;21.38;;;-3276.40;92.70;;;;;;5027213;28;20052;-71
2022/12/04 02:25:10;;;;;;;45.53;21.13;;;-3276.30;92.70;;;;;;5030302;28;20087;-72
2022/12/04 02:27:38;;;;;;;42.70;19.35;;;-3276.30;92.70;;;;;;5023729;28;20280;-71
2022/12/04 02:30:10;;;;;;;51.60;22.90;;;-3276.30;92.70;;;;;;5029366;28;20037;-73
2022/12/04 02:32:47;;;;;;;49.50;22.10;;;-3276.30;92.80;;;;;;5025721;28;20473;-72
2022/12/04 02:35:18;;;;;;;50.75;21.98;;;-3276.30;92.80;;;;;;5033413;28;20021;-72
2022/12/04 02:37:48;;;;;;;44.63;20.08;;;-3276.30;92.70;;;;;;5029269;28;20146;-72
2022/12/04 02:40:35;;;;;;;46.10;21.98;;;-3276.30;92.70;;;;;;5030733;28;20438;-72
2022/12/04 02:43:29;;;;;;;44.85;21.67;;;-3276.30;92.90;;;;;;5028645;28;20034;-72
2022/12/04 02:46:04;;;;;;;48.45;21.65;;;-3276.40;92.90;;;;;;5021851;28;20315;-71
2022/12/04 02:48:34;;;;;;;44.55;22.10;;;-3276.40;92.80;;;;;;5023215;28;20102;-72
2022/12/04 02:51:02;;;;;;;41.57;20.60;;;-3276.40;92.70;;;;;;5030622;28;20104;-71
2022/12/04 02:53:35;;;;;;;45.10;20.92;;;-3276.40;93.00;;;;;;5028574;28;20507;-72
2022/12/04 02:56:26;;;;;;;46.17;22.00;;;-3276.40;93.00;;;;;;5029421;28;20022;-71
2022/12/04 02:58:56;;;;;;;;;;;-3276.40;92.90;;;;;;5019895;28;20385;-71
2022/12/04 03:01:27;;;;;;;32.57;14.33;;;-3276.40;92.90;;;;;;5023729;28;19909;-71
2022/12/04 03:04:00;;;;;;;45.72;21.30;;;-3276.40;92.90;;;;;;5022861;28;20025;-72
2022/12/04 03:06:29;;;;;;;48.38;22.50;;;-3276.40;92.90;;;;;;5028069;28;20025;-72
2022/12/04 03:09:07;;;;;;;47.40;22.27;;;-3276.40;93.00;;;;;;5022287;28;20037;-72
2022/12/04 03:11:34;;;;;;;46.85;22.05;;;-3276.50;93.00;;;;;;5025748;28;20319;-73
2022/12/04 03:14:17;;;;;;;52.03;22.67;;;-3276.50;93.10;;;;;;5024636;28;20037;-72
2022/12/04 03:16:43;;;;;;;45.78;22.23;;;-3276.50;93.10;;;;;;5028585;28;20017;-71
2022/12/04 03:19:33;;;;;;;45.80;22.67;;;-3276.40;93.00;;;;;;5028863;28;20026;-72
2022/12/04 03:22:03;;;;;;;50.30;21.98;;;-3276.50;93.10;;;;;;5026589;28;20033;-71
2022/12/04 03:24:33;;;;;;;46.22;22.23;;;-3276.50;93.10;;;;;;5031089;28;20053;-72
2022/12/04 03:27:02;;;;;;;48.80;22.87;;;-3276.50;93.00;;;;;;5029460;28;20025;-71
2022/12/04 03:29:42;;;;;;;42.40;21.08;;;-3276.50;93.20;;;;;;5027293;28;20687;-71
2022/12/04 03:32:26;;;;;;;44.72;22.08;;;-3276.40;93.10;;;;;;5019262;28;20429;-72
2022/12/04 03:35:12;;;;;;;55.00;22.65;;;-3276.50;93.20;;;;;;5027701;28;20036;-72
2022/12/04 03:38:00;;;;;;;47.40;20.92;;;-3276.50;93.20;;;;;;5026522;28;20044;-72
2022/12/04 03:40:35;;;;;;;49.88;23.65;;;-3276.50;93.20;;;;;;5018323;28;20122;-71
2022/12/04 03:43:11;;;;;;;46.58;22.40;;;-3276.50;93.20;;;;;;5027213;28;20025;-71
2022/12/04 03:45:50;;;;;;;47.17;22.45;;;-3276.60;93.20;;;;;;5021314;28;20056;-71
2022/12/04 03:48:31;;;;;;;45.20;21.75;;;-3276.50;93.20;;;;;;5029727;28;20057;-72
2022/12/04 03:51:11;;;;;;;48.17;22.48;;;-3276.50;93.40;;;;;;5028645;28;20105;-71
2022/12/04 03:53:47;;;;;;;49.15;22.63;;;-3276.50;93.40;;;;;;5023520;28;20481;-72
2022/12/04 03:56:18;;;;;;;45.67;21.83;;;-3276.50;93.40;;;;;;5037112;28;21873;-72
2022/12/04 03:58:51;;;;;;;46.55;22.00;;;-3276.50;93.40;;;;;;5021488;28;20453;-71
2022/12/04 04:01:21;;;;;;;45.38;21.80;;;-3276.50;93.40;;;;;;5029894;28;20132;-71
2022/12/04 04:03:50;;;;;;;47.28;20.75;;;-3276.60;93.40;;;;;;5028649;28;20028;-73
2022/12/04 04:06:27;;;;;;;50.08;22.83;;;-3276.60;93.50;;;;;;5034591;28;20040;-71
2022/12/04 04:08:57;;;;;;;50.17;23.23;;;-3276.60;93.40;;;;;;5022915;28;20102;-72
2022/12/04 04:11:34;;;;;;;53.13;22.45;;;-3276.60;93.50;;;;;;5030115;28;20041;-72
2022/12/04 04:25:26;;;;;;;53.33;23.42;;;-3276.70;93.60;;;;;;5030542;28;20116;-71
2022/12/04 04:27:56;;;;;;;51.38;22.73;;;-3276.70;93.60;;;;;;5023955;28;20025;-71
2022/12/04 04:30:22;;;;;;;;;;;-3276.70;93.70;;;;;;5023967;28;20025;-71
2022/12/04 04:33:02;;;;;;;45.05;20.55;;;-3276.70;93.70;;;;;;5030885;28;19909;-72
2022/12/04 04:35:42;;;;;;;52.50;22.35;;;-3276.70;93.80;;;;;;5028669;28;20065;-71
2022/12/04 04:38:29;;;;;;;52.92;22.38;;;-3276.70;93.70;;;;;;5025241;28;20442;-71
2022/12/04 04:41:15;;;;;;;45.90;20.42;;;-3276.70;93.60;;;;;;5024039;28;20033;-72
2022/12/04 04:43:53;;;;;;;50.08;22.48;;;-3276.70;93.70;;;;;;5023111;28;20064;-71
2022/12/04 04:46:27;;;;;;;51.25;23.38;;;-3276.70;93.80;;;;;;5028314;28;20094;-71
2022/12/04 04:48:57;;;;;;;52.60;23.67;;;-3276.70;93.80;;;;;;5025512;28;20040;-72
2022/12/04 04:51:23;;;;;;;51.88;22.95;;;0.00;93.80;;;;;;5022307;28;20021;-72
2022/12/04 04:53:52;;;;;;;49.85;23.20;;;0.00;93.80;;;;;;5027708;28;20109;-72
2022/12/04 04:56:18;;;;;;;53.72;22.88;;;-3276.70;93.70;;;;;;5034965;28;20034;-73
2022/12/04 04:58:44;;;;;;;51.00;23.33;;;-3276.70;93.70;;;;;;5024337;28;20386;-72
2022/12/04 05:01:10;;;;;;;54.25;23.92;;;-3276.70;93.80;;;;;;5019675;28;20136;-72
2022/12/04 05:03:36;;;;;;;53.15;23.25;;;-3276.70;93.60;;;;;;5015746;28;20481;-72
2022/12/04 05:06:02;;;;;;;51.10;23.55;;;-3276.70;93.80;;;;;;5023042;28;20084;-71
2022/12/04 05:08:27;;;;;;;51.33;21.70;;;0.00;93.80;;;;;;5025369;28;20029;-72
2022/12/04 05:10:53;;;;;;;46.65;21.40;;;-3276.70;93.80;;;;;;5026253;28;20417;-71
2022/12/04 05:13:20;;;;;;;52.08;24.10;;;-3276.70;93.80;;;;;;5026225;28;20041;-72
2022/12/04 05:15:59;;;;;;;53.75;23.33;;;0.00;93.80;;;;;;5026204;28;20396;-72
2022/12/04 05:18:25;;;;;;;48.53;22.15;;;-3276.70;93.80;;;;;;5019998;28;20117;-71
2022/12/04 05:20:50;;;;;;;49.25;22.48;;;0.00;93.80;;;;;;5019582;28;20121;-71
2022/12/04 05:23:16;;;;;;;49.70;23.67;;;0.00;93.80;;;;;;5027495;28;20350;-72
2022/12/04 05:25:41;;;;;;;53.03;23.65;;;-3276.70;93.70;;;;;;5016753;28;20103;-71
2022/12/04 05:28:07;;;;;;;51.33;24.05;;;-3276.70;93.80;;;;;;5026782;28;20025;-73
2022/12/04 05:30:33;;;;;;;51.60;24.85;;;0.00;93.80;;;;;;5029330;28;20466;-73
2022/12/04 05:32:58;;;;;;;51.00;23.17;;;0.00;93.80;;;;;;5028953;28;20083;-72
2022/12/04 05:35:24;;;;;;;49.58;23.13;;;0.00;93.80;;;;;;5025591;28;20057;-73
2022/12/04 05:37:49;;;;;;;54.95;23.02;;;0.00;93.90;;;;;;5026865;28;20169;-72
2022/12/04 05:40:15;;;;;;;48.25;22.02;;;0.00;93.80;;;;;;5036126;28;20104;-72
2022/12/04 05:42:40;;;;;;;50.92;23.23;;;0.00;93.80;;;;;;5030183;28;20052;-73
2022/12/04 05:45:06;;;;;;;47.30;22.10;;;0.00;93.80;;;;;;5033819;28;20044;-73
2022/12/04 05:47:37;;;;;;;49.28;22.27;;;0.00;93.80;;;;;;5029916;28;20109;-72
2022/12/04 05:50:03;;;;;;;49.65;23.00;;;0.00;93.80;;;;;;5028089;28;20132;-72
2022/12/04 05:52:28;;;;;;;44.45;22.77;;;-3276.70;93.80;;;;;;5030543;28;20157;-72
2022/12/04 05:54:54;;;;;;;50.22;22.40;;;0.00;94.00;;;;;;5027377;28;20087;-72
2022/12/04 05:57:19;;;;;;;51.08;24.80;;;0.00;93.80;;;;;;5033249;28;20061;-72
2022/12/04 05:59:44;;;;;;;43.20;22.58;;;0.00;93.90;;;;;;5029029;28;21190;-72
2022/12/04 06:02:10;;;;;;;49.42;23.30;;;0.00;93.90;;;;;;5027271;28;20029;-72
2022/12/04 06:04:36;;;;;;;48.30;22.45;;;0.00;93.90;;;;;;5031832;28;20481;-72
2022/12/04 06:07:02;;;;;;;51.00;22.95;;;0.00;93.80;;;;;;5030727;28;20028;-72
2022/12/04 06:09:27;;;;;;;52.78;23.38;;;0.00;93.80;;;;;;5026884;28;20382;-72
2022/12/04 06:11:56;;;;;;;54.92;23.98;;;0.00;93.80;;;;;;5030786;28;20037;-72
2022/12/04 06:14:22;;;;;;;49.95;22.58;;;0.00;93.90;;;;;;5029457;28;20123;-72
2022/12/04 06:16:47;;;;;;;56.08;22.83;;;0.00;93.80;;;;;;5028644;28;22021;-72
2022/12/04 06:19:19;;;;;;;51.70;22.98;;;0.00;94.00;;;;;;5034707;28;20204;-73
2022/12/04 06:21:47;;;;;;;50.50;23.75;;;0.00;94.00;;;;;;5017691;28;20113;-74
2022/12/04 06:24:16;;;;;;;50.08;22.27;;;0.00;94.00;;;;;;5020430;28;20026;-73
2022/12/04 06:26:42;;;;;;;46.95;22.42;;;0.00;94.00;;;;;;5011237;28;20453;-74
2022/12/04 06:29:10;;;;;;;48.53;22.25;;;0.00;94.00;;;;;;5028774;28;20059;-72
2022/12/04 06:31:36;;;;;;;51.63;23.27;;;0.00;94.00;;;;;;5028962;28;20030;-74
2022/12/04 06:34:03;;;;;;;55.35;22.75;;;0.00;94.00;;;;;;5037182;28;20032;-73
2022/12/04 06:36:29;;;;;;;46.92;21.75;;;0.00;94.00;;;;;;5030237;28;20128;-74
2022/12/04 06:38:56;;;;;;;48.33;22.38;;;0.00;94.00;;;;;;5035359;28;20463;-74
2022/12/04 06:41:22;;;;;;;47.95;22.58;;;0.00;94.00;;;;;;5037263;28;20090;-74
2022/12/04 06:43:49;;;;;;;45.53;22.30;;;0.00;94.10;;;;;;5019496;28;20436;-74
2022/12/04 06:46:18;;;;;;;46.65;22.55;;;0.00;94.10;;;;;;5034230;28;20065;-74
2022/12/04 06:48:43;;;;;;;47.28;22.15;;;0.00;94.10;;;;;;5025915;28;20053;-74
2022/12/04 06:51:12;;;;;;;54.88;23.98;;;0.00;94.00;;;;;;5027461;28;20115;-74
2022/12/04 06:53:39;;;;;;;47.58;21.63;;;0.00;94.00;;;;;;5022376;28;20038;-74
2022/12/04 06:56:08;;;;;;;48.85;23.27;;;0.10;94.10;;;;;;5020547;28;20041;-74
2022/12/04 06:58:34;;;;;;;45.35;23.00;;;0.00;94.10;;;;;;5028874;28;20496;-74
2022/12/04 07:01:06;;;;;;;48.50;22.10;;;0.10;94.20;;;;;;5024744;28;20039;-74
2022/12/04 07:03:31;;;;;;;46.00;22.38;;;0.00;94.10;;;;;;5026444;28;20136;-74
2022/12/04 07:05:57;;;;;;;49.72;22.70;;;0.10;94.20;;;;;;5028259;28;20159;-74
2022/12/04 07:08:22;;;;;;;47.40;22.25;;;0.00;94.10;;;;;;5027272;28;20074;-74
2022/12/04 07:10:48;;;;;;;48.05;22.08;;;0.10;94.10;;;;;;5019563;28;20045;-74
2022/12/04 07:13:13;;;;;;;51.90;23.33;;;0.10;94.10;;;;;;5026186;28;20064;-74
2022/12/04 07:15:39;;;;;;;48.28;23.27;;;0.10;94.10;;;;;;5028403;28;20132;-74
2022/12/04 07:18:04;;;;;;;48.13;22.42;;;0.10;94.20;;;;;;5023995;28;20063;-74
2022/12/04 07:20:31;;;;;;;49.97;22.65;;;0.10;94.20;;;;;;5028144;28;20030;-74
2022/12/04 07:22:56;;;;;;;49.45;23.27;;;0.10;94.20;;;;;;5029479;28;20146;-74
2022/12/04 07:25:22;;;;;;;48.38;22.75;;;0.10;94.10;;;;;;5022595;28;20065;-74
2022/12/04 07:27:47;;;;;;;50.47;23.25;;;0.10;94.20;;;;;;5031695;28;20105;-74
2022/12/04 07:30:13;;;;;;;51.83;23.20;;;0.10;94.20;;;;;;5034280;28;20037;-74
2022/12/04 07:32:38;;;;;;;48.30;22.02;;;0.10;94.20;;;;;;5019840;28;20025;-74
2022/12/04 07:35:04;;;;;;;49.63;22.85;;;0.10;94.10;;;;;;5031485;28;20032;-74
2022/12/04 07:37:30;;;;;;;50.17;22.77;;;0.10;94.20;;;;;;5018480;28;20025;-74
2022/12/04 07:39:56;;;;;;;50.28;24.40;;;0.10;94.20;;;;;;5026871;28;20040;-71
2022/12/04 07:42:21;;;;;;;49.10;21.98;;;0.10;94.20;;;;;;5023497;28;20104;-71
2022/12/04 07:44:47;;;;;;;46.58;20.65;;;0.20;94.20;;;;;;5030333;28;20429;-71
2022/12/04 07:47:12;;;;;;;51.85;22.95;;;0.10;94.10;;;;;;5022721;28;20037;-71
2022/12/04 07:49:38;;;;;;;46.85;21.52;;;0.20;94.20;;;;;;5022252;28;20021;-71
2022/12/04 07:52:04;;;;;;;50.40;21.38;;;0.20;94.20;;;;;;5025834;28;20030;-71
2022/12/04 07:54:30;;;;;;;47.95;22.63;;;0.20;94.20;;;;;;5026290;28;20040;-70
2022/12/04 07:56:55;;;;;;;47.05;23.20;;;0.20;94.20;;;;;;5019963;28;20398;-71
2022/12/04 07:59:21;;;;;;;46.83;22.70;;;0.20;94.20;;;;;;5026429;28;20028;-71
2022/12/04 08:01:46;;;;;;;48.10;23.45;;;0.20;94.20;;;;;;5026119;28;20051;-72
2022/12/04 08:04:12;;;;;;;47.45;21.67;;;0.30;94.20;;;;;;5027925;28;20033;-71
2022/12/04 08:06:37;;;;;;;47.47;21.85;;;0.30;94.30;;;;;;5018145;28;20173;-69
2022/12/04 08:09:06;;;;;;;45.05;22.55;;;0.30;94.20;;;;;;5018992;28;20135;-69
2022/12/04 08:11:32;;;;;;;55.90;24.98;;;0.30;94.10;;;;;;5034068;28;20026;-76
2022/12/04 08:14:00;;;;;;;49.85;22.95;;;0.40;94.20;;;;;;5019541;28;20212;-69
2022/12/04 08:16:27;;;;;;;48.15;22.35;;;0.40;94.20;;;;;;5028203;28;20112;-70
2022/12/04 08:18:53;;;;;;;43.22;21.38;;;0.40;94.10;;;;;;5030305;28;20037;-70
2022/12/04 08:21:21;;;;;;;46.67;22.60;;;0.40;94.10;;;;;;5033846;28;20056;-69
2022/12/04 08:23:49;;;;;;;48.88;23.13;;;0.40;94.00;;;;;;5019019;28;20064;-70
2022/12/04 08:26:16;;;;;;;51.50;21.60;;;0.40;94.00;;;;;;5026669;28;20033;-70
2022/12/04 08:28:42;;;;;;;49.38;23.00;;;0.40;93.90;;;;;;5023918;28;20513;-70
2022/12/04 08:31:14;;;;;;;47.17;22.35;;;0.40;94.00;;;;;;5023843;28;20022;-69
2022/12/04 08:33:41;;;;;;;51.67;24.08;;;0.40;93.90;;;;;;5031080;28;20129;-71
2022/12/04 08:36:09;;;;;;;48.70;22.98;;;0.50;94.00;;;;;;5029753;28;20367;-70
2022/12/04 08:38:35;;;;;;;51.38;23.65;;;0.60;94.00;;;;;;5025454;28;20091;-70
2022/12/04 08:41:01;;;;;;;48.85;22.65;;;0.60;94.00;;;;;;5021450;28;20049;-71
2022/12/04 08:43:27;;;;;;;53.20;23.80;;;0.60;93.80;;;;;;5019008;28;20462;-69
2022/12/04 08:45:57;;;;;;;47.50;22.77;;;0.60;93.80;;;;;;5023470;28;20113;-71
2022/12/04 08:48:23;;;;;;;45.88;22.73;;;0.60;93.80;;;;;;5020970;28;20036;-70
2022/12/04 08:50:48;;;;;;;45.55;22.23;;;0.60;93.90;;;;;;5024724;28;20300;-71
2022/12/04 08:53:14;;;;;;;49.95;22.00;;;0.70;93.80;;;;;;5025884;28;20041;-70
2022/12/04 08:55:40;;;;;;;50.05;22.80;;;0.60;93.90;;;;;;5018263;28;20532;-70
2022/12/04 08:58:05;;;;;;;50.80;23.50;;;0.70;93.80;;;;;;5023537;28;20555;-70
2022/12/04 09:00:31;;;;;;;47.60;22.00;;;0.70;93.80;;;;;;5015803;28;20120;-69
2022/12/04 09:02:56;;;;;;;46.45;22.73;;;0.70;94.00;;;;;;5027273;28;20045;-70
2022/12/04 09:05:22;;;;;;;47.55;23.08;;;0.70;94.00;;;;;;5032154;28;20114;-69
2022/12/04 09:07:47;;;;;;;54.10;23.95;;;0.70;93.90;;;;;;5025884;28;20115;-72
2022/12/04 09:10:13;;;;;;;51.65;23.85;;;0.80;93.80;;;;;;5025495;28;20047;-70
2022/12/04 09:12:39;;;;;;;46.05;22.23;;;0.80;93.90;;;;;;5026344;28;20136;-70
2022/12/04 09:15:06;;;;;;;56.15;23.90;;;0.80;93.90;;;;;;5018978;28;20129;-70
2022/12/04 09:17:33;;;;;;;47.67;23.85;;;0.80;93.90;;;;;;5023627;28;20137;-70
2022/12/04 09:19:58;;;;;;;48.03;23.55;;;0.80;93.90;;;;;;5020684;28;20087;-70
2022/12/04 09:22:23;;;;;;;51.53;24.00;;;0.90;93.80;;;;;;5026535;28;20463;-71
2022/12/04 09:24:49;;;;;;;47.55;22.95;;;0.90;93.80;;;;;;5024281;28;20026;-70
2022/12/04 09:27:15;;;;;;;49.75;22.75;;;0.90;93.70;;;;;;5024130;28;20440;-72
2022/12/04 09:29:41;;;;;;;58.30;25.98;;;0.90;93.70;;;;;;5026551;28;20022;-71
2022/12/04 09:32:06;;;;;;;51.00;23.92;;;1.00;93.80;;;;;;5023662;28;20431;-71
2022/12/04 09:34:32;;;;;;;57.28;23.77;;;1.00;93.80;;;;;;5018675;28;20132;-74
2022/12/04 09:36:57;;;;;;;53.40;23.77;;;1.10;93.70;;;;;;5018888;28;20029;-72
2022/12/04 09:39:23;;;;;;;47.75;23.45;;;1.10;93.70;;;;;;5022375;28;20045;-71
2022/12/04 09:42:01;;;;;;;54.15;23.23;;;1.10;93.40;;;;;;5025336;28;20029;-70
2022/12/04 09:44:33;;;;;;;48.67;22.70;;;1.00;93.40;;;;;;5021549;28;20414;-70
2022/12/04 09:47:08;;;;;;;51.72;23.88;;;1.10;93.50;;;;;;5027059;28;20021;-69
2022/12/04 09:49:36;;;;;;;49.92;23.35;;;1.10;93.60;;;;;;5023217;28;20429;-71
2022/12/04 09:52:07;;;;;;;45.67;22.25;;;1.20;93.50;;;;;;5034098;28;20109;-71
2022/12/04 09:54:39;;;;;;;45.30;21.48;;;1.20;93.50;;;;;;5022061;28;20075;-71
2022/12/04 09:57:15;;;;;;;48.75;21.20;;;1.30;93.40;;;;;;5021372;28;20092;-71
2022/12/04 09:59:42;;;;;;;42.67;22.65;;;1.20;93.30;;;;;;5024322;28;20036;-70
2022/12/04 10:02:26;;;;;;;50.63;23.42;;;1.30;93.40;;;;;;5025487;28;20114;-71
2022/12/04 10:04:52;;;;;;;47.42;22.05;;;1.30;93.50;;;;;;5020929;28;20135;-71
2022/12/04 10:07:25;;;;;;;45.25;22.30;;;1.30;93.50;;;;;;5020821;28;20029;-71
2022/12/04 10:10:01;;;;;;;46.58;23.58;;;1.30;93.50;;;;;;5016936;28;20029;-73
2022/12/04 10:12:46;;;;;;;49.70;21.98;;;1.40;93.50;;;;;;5018697;28;20037;-71
2022/12/04 10:15:17;;;;;;;46.00;21.35;;;1.30;93.40;;;;;;5022656;28;20442;-73
2022/12/04 10:17:49;;;;;;;51.20;23.13;;;1.40;93.40;;;;;;5020180;28;20170;-72
2022/12/04 10:20:33;;;;;;;47.20;22.92;;;1.40;93.50;;;;;;5029619;28;20057;-71
2022/12/04 10:23:14;;;;;;;49.45;22.77;;;1.40;93.40;;;;;;5034560;28;20945;-71
2022/12/04 10:25:40;;;;;;;;;;;1.40;93.50;;;;;;5021776;28;20406;-69
2022/12/04 10:28:47;;;;;;;45.72;20.92;;;1.40;93.50;;;;;;5023185;28;19932;-70
2022/12/04 10:31:14;;;;;;;49.75;21.42;;;1.40;93.60;;;;;;5027342;28;20048;-71
2022/12/04 10:33:44;;;;;;;47.25;23.48;;;1.40;93.70;;;;;;5024771;28;20051;-71
2022/12/04 10:36:15;;;;;;;44.25;20.45;;;1.40;93.70;;;;;;5027980;28;20042;-72
2022/12/04 10:38:54;;;;;;;46.38;22.23;;;1.40;93.70;;;;;;5024329;28;20038;-71
2022/12/04 10:41:59;;;;;;;47.80;21.95;;;1.50;93.80;;;;;;5022318;28;20124;-70
2022/12/04 10:44:24;;;;;;;49.28;20.75;;;1.50;94.00;;;;;;5008464;28;20437;-71
2022/12/04 10:46:55;;;;;;;46.78;22.17;;;1.40;93.90;;;;;;5021004;28;20046;-70
2022/12/04 10:49:27;;;;;;;53.78;22.88;;;1.50;94.10;;;;;;5024346;28;21966;-72
2022/12/04 10:51:53;;;;;;;45.05;22.85;;;1.60;94.00;;;;;;5028060;28;20424;-72
2022/12/04 10:54:28;;;;;;;44.00;21.20;;;1.60;94.00;;;;;;5032775;28;20323;-73
2022/12/04 10:57:08;;;;;;;46.60;22.60;;;1.60;93.90;;;;;;5025327;28;20109;-74
2022/12/04 10:59:34;;;;;;;47.37;22.37;;;1.60;94.10;;;;;;5023639;28;20032;-74
2022/12/04 11:02:11;;;;;;;47.72;22.63;;;1.60;94.00;;;;;;5024432;28;20366;-74
2022/12/04 11:04:36;;;;;;;43.25;21.23;;;1.60;94.00;;;;;;5023708;28;20044;-74
2022/12/04 11:07:08;;;;;;;45.38;22.60;;;1.60;94.20;;;;;;5031846;28;20324;-74
2022/12/04 11:09:34;;;;;;;46.05;20.80;;;1.70;94.30;;;;;;5025924;28;20030;-74
2022/12/04 11:12:14;;;;;;;42.90;20.55;;;1.60;94.30;;;;;;5027464;28;20037;-74
2022/12/04 11:14:40;;;;;;;48.25;22.00;;;1.70;94.50;;;;;;5021167;28;20184;-74
2022/12/04 11:17:06;;;;;;;41.30;20.25;;;1.70;94.60;;;;;;5028310;28;20449;-74
2022/12/04 11:19:35;;;;;;;47.38;22.02;;;1.70;94.80;;;;;;5028474;28;20033;-74
2022/12/04 11:22:11;;;;;;;46.40;21.38;;;1.70;94.80;;;;;;5028292;28;20025;-74
2022/12/04 11:24:39;;;;;;;49.15;20.83;;;1.70;94.90;;;;;;5029093;28;20021;-75
2022/12/04 11:27:06;;;;;;;44.15;21.13;;;1.60;94.90;;;;;;5028409;28;20035;-75
2022/12/04 11:29:40;;;;;;;42.53;21.90;;;1.70;95.30;;;;;;5025757;28;20411;-75
2022/12/04 11:32:13;;;;;;;50.95;21.80;;;1.70;95.40;;;;;;5022242;28;20034;-75
2022/12/04 11:34:40;;;;;;;50.22;23.63;;;1.70;95.40;;;;;;5029099;28;20027;-74
2022/12/04 11:37:19;;;;;;;41.83;21.67;;;1.60;95.60;;;;;;5029272;28;20033;-74
2022/12/04 11:39:46;;;;;;;46.78;22.40;;;1.60;95.80;;;;;;5031418;28;20026;-75
2022/12/04 11:42:23;;;;;;;46.15;22.55;;;1.70;96.00;;;;;;5033029;28;20045;-74
2022/12/04 11:44:52;;;;;;;48.10;21.55;;;1.80;96.10;;;;;;5030250;28;20040;-73
2022/12/04 11:47:20;;;;;;;45.28;21.92;;;1.80;96.10;;;;;;5027720;28;20022;-74
2022/12/04 11:50:11;;;;;;;46.42;22.30;;;1.70;96.00;;;;;;5028345;28;20048;-74
2022/12/04 11:52:49;;;;;;;48.35;22.23;;;1.70;96.10;;;;;;5027794;28;20033;-73
2022/12/04 11:55:49;;;;;;;47.67;21.55;;;1.70;95.90;;;;;;5026925;28;20029;-74
2022/12/04 11:58:43;;;;;;;52.42;22.48;;;1.70;96.00;;;;;;5005901;28;20121;-74
2022/12/04 12:01:38;;;;;;;46.65;20.67;;;1.80;95.90;;;;;;5020797;28;20071;-74
2022/12/04 12:04:13;;;;;;;36.92;19.95;;;1.80;95.90;;;;;;5023792;28;20398;-73
2022/12/04 12:07:03;;;;;;;46.38;21.67;;;1.80;95.50;;;;;;5024106;28;20052;-74
2022/12/04 12:09:45;;;;;;;47.92;20.77;;;1.80;95.40;;;;;;5025296;28;20402;-74
2022/12/04 12:12:21;;;;;;;41.50;19.58;;;1.80;95.30;;;;;;5021392;28;20044;-73
2022/12/04 12:15:05;;;;;;;43.60;19.80;;;1.70;95.00;;;;;;5030608;28;20021;-74
2022/12/04 12:17:36;;;;;;;44.35;20.05;;;1.80;95.10;;;;;;5028412;28;20846;-74
2022/12/04 12:20:13;;;;;;;43.03;20.25;;;1.80;95.10;;;;;;5035865;28;20356;-73
2022/12/04 12:22:38;;;;;;;34.47;18.42;;;1.90;95.00;;;;;;5016954;28;20155;-74
2022/12/04 12:25:18;;;;;;;44.75;20.63;;;1.80;95.00;;;;;;5018134;28;20029;-74
2022/12/04 12:28:12;;;;;;;39.10;18.67;;;1.90;95.00;;;;;;5023566;28;20545;-73
2022/12/04 12:31:03;;;;;;;42.85;19.45;;;1.80;94.80;;;;;;5030767;28;20021;-74
2022/12/04 12:33:35;;;;;;;37.92;19.35;;;1.90;95.00;;;;;;5024610;28;20025;-73
2022/12/04 12:36:12;;;;;;;32.75;17.88;;;1.90;94.90;;;;;;5027071;28;20041;-74
2022/12/04 12:38:54;;;;;;;37.13;17.48;;;1.90;94.90;;;;;;5026068;28;20108;-73
2022/12/04 12:41:29;;;;;;;37.05;18.15;;;1.90;94.70;;;;;;5021754;28;20129;-74
2022/12/04 12:44:03;;;;;;;38.85;18.60;;;2.00;94.80;;;;;;5025132;28;20033;-73
2022/12/04 12:46:47;;;;;;;40.70;19.88;;;2.00;94.70;;;;;;5023592;28;20165;-74
2022/12/04 12:49:33;;;;;;;41.33;20.60;;;2.10;94.60;;;;;;5019219;28;20024;-74
2022/12/04 12:52:23;;;;;;;38.30;18.40;;;2.00;94.50;;;;;;5024214;28;20045;-74
2022/12/04 12:55:13;;;;;;;36.45;17.58;;;2.10;94.50;;;;;;5026839;28;20067;-73